sensor_id;sensor_type;location;lat;lon;timestamp;temperature;humidity
44723;DHT22;30451;48.638;10.624;2023-11-19T00:00:17;19.30;58.30
44723;DHT22;30451;48.638;10.624;2023-11-19T00:02:43;19.30;58.40
44723;DHT22;30451;48.638;10.624;2023-11-19T00:05:09;19.30;58.40
44723;DHT22;30451;48.638;10.624;2023-11-19T00:07:37;19.30;58.30
44723;DHT22;30451;48.638;10.624;2023-11-19T00:10:08;19.30;58.40
44723;DHT22;30451;48.638;10.624;2023-11-19T00:12:36;19.30;58.40
44723;DHT22;30451;48.638;10.624;2023-11-19T00:15:02;19.30;58.30
44723;DHT22;30451;48.638;10.624;2023-11-19T00:17:27;19.30;58.40
44723;DHT22;30451;48.638;10.624;2023-11-19T00:19:53;19.30;58.40
44723;DHT22;30451;48.638;10.624;2023-11-19T00:22:18;19.30;58.40
44723;DHT22;30451;48.638;10.624;2023-11-19T00:24:46;19.30;58.30
44723;DHT22;30451;48.638;10.624;2023-11-19T00:27:12;19.30;58.40
44723;DHT22;30451;48.638;10.624;2023-11-19T00:29:37;19.20;58.30
44723;DHT22;30451;48.638;10.624;2023-11-19T00:32:03;19.30;58.30
44723;DHT22;30451;48.638;10.624;2023-11-19T00:34:30;19.30;58.30
44723;DHT22;30451;48.638;10.624;2023-11-19T00:36:56;19.30;58.30
44723;DHT22;30451;48.638;10.624;2023-11-19T00:39:22;19.30;58.40
44723;DHT22;30451;48.638;10.624;2023-11-19T00:41:48;19.30;58.30
44723;DHT22;30451;48.638;10.624;2023-11-19T00:44:14;19.20;58.30
44723;DHT22;30451;48.638;10.624;2023-11-19T00:46:40;19.30;58.30
44723;DHT22;30451;48.638;10.624;2023-11-19T00:49:05;19.20;58.30
44723;DHT22;30451;48.638;10.624;2023-11-19T00:51:31;19.20;58.30
44723;DHT22;30451;48.638;10.624;2023-11-19T00:53:57;19.20;58.30
44723;DHT22;30451;48.638;10.624;2023-11-19T00:56:23;19.30;58.30
44723;DHT22;30451;48.638;10.624;2023-11-19T00:58:49;19.20;58.30
44723;DHT22;30451;48.638;10.624;2023-11-19T01:01:15;19.20;58.30
44723;DHT22;30451;48.638;10.624;2023-11-19T01:03:40;19.20;58.30
44723;DHT22;30451;48.638;10.624;2023-11-19T01:06:06;19.20;58.30
44723;DHT22;30451;48.638;10.624;2023-11-19T01:08:33;19.20;58.30
44723;DHT22;30451;48.638;10.624;2023-11-19T01:11:01;19.20;58.30
44723;DHT22;30451;48.638;10.624;2023-11-19T01:13:27;19.20;58.30
44723;DHT22;30451;48.638;10.624;2023-11-19T01:15:53;19.20;58.30
44723;DHT22;30451;48.638;10.624;2023-11-19T01:18:18;19.20;58.30
44723;DHT22;30451;48.638;10.624;2023-11-19T01:20:44;19.20;58.30
44723;DHT22;30451;48.638;10.624;2023-11-19T01:23:11;19.20;58.30
44723;DHT22;30451;48.638;10.624;2023-11-19T01:25:37;19.20;58.30
44723;DHT22;30451;48.638;10.624;2023-11-19T01:28:03;19.20;58.30
44723;DHT22;30451;48.638;10.624;2023-11-19T01:30:30;19.20;58.30
44723;DHT22;30451;48.638;10.624;2023-11-19T01:32:56;19.20;58.30
44723;DHT22;30451;48.638;10.624;2023-11-19T01:35:21;19.20;58.30
44723;DHT22;30451;48.638;10.624;2023-11-19T01:37:48;19.20;58.30
44723;DHT22;30451;48.638;10.624;2023-11-19T01:40:14;19.20;58.30
44723;DHT22;30451;48.638;10.624;2023-11-19T01:42:40;19.20;58.30
44723;DHT22;30451;48.638;10.624;2023-11-19T01:45:07;19.20;58.30
44723;DHT22;30451;48.638;10.624;2023-11-19T01:47:35;19.20;58.20
44723;DHT22;30451;48.638;10.624;2023-11-19T01:50:01;19.20;58.30
44723;DHT22;30451;48.638;10.624;2023-11-19T01:52:33;19.20;58.30
44723;DHT22;30451;48.638;10.624;2023-11-19T01:55:00;19.20;58.30
44723;DHT22;30451;48.638;10.624;2023-11-19T01:57:26;19.20;58.30
44723;DHT22;30451;48.638;10.624;2023-11-19T01:59:52;19.20;58.30
44723;DHT22;30451;48.638;10.624;2023-11-19T02:02:19;19.20;58.30
44723;DHT22;30451;48.638;10.624;2023-11-19T02:04:47;19.20;58.30
44723;DHT22;30451;48.638;10.624;2023-11-19T02:07:14;19.20;58.30
44723;DHT22;30451;48.638;10.624;2023-11-19T02:09:42;19.20;58.30
44723;DHT22;30451;48.638;10.624;2023-11-19T02:12:08;19.20;58.30
44723;DHT22;30451;48.638;10.624;2023-11-19T02:14:37;19.20;58.30
44723;DHT22;30451;48.638;10.624;2023-11-19T02:17:02;19.20;58.20
44723;DHT22;30451;48.638;10.624;2023-11-19T02:19:28;19.20;58.30
44723;DHT22;30451;48.638;10.624;2023-11-19T02:21:54;19.20;58.30
44723;DHT22;30451;48.638;10.624;2023-11-19T02:24:22;19.20;58.30
44723;DHT22;30451;48.638;10.624;2023-11-19T02:27:10;19.20;58.30
44723;DHT22;30451;48.638;10.624;2023-11-19T02:29:39;19.20;58.30
44723;DHT22;30451;48.638;10.624;2023-11-19T02:32:05;19.20;58.30
44723;DHT22;30451;48.638;10.624;2023-11-19T02:34:31;19.20;58.30
44723;DHT22;30451;48.638;10.624;2023-11-19T02:36:56;19.20;58.20
44723;DHT22;30451;48.638;10.624;2023-11-19T02:39:22;19.20;58.30
44723;DHT22;30451;48.638;10.624;2023-11-19T02:41:48;19.20;58.30
44723;DHT22;30451;48.638;10.624;2023-11-19T02:44:18;19.20;58.30
44723;DHT22;30451;48.638;10.624;2023-11-19T02:46:44;19.20;58.30
44723;DHT22;30451;48.638;10.624;2023-11-19T02:49:09;19.20;58.30
44723;DHT22;30451;48.638;10.624;2023-11-19T02:51:35;19.20;58.30
44723;DHT22;30451;48.638;10.624;2023-11-19T02:54:01;19.20;58.30
44723;DHT22;30451;48.638;10.624;2023-11-19T02:56:29;19.20;58.80
44723;DHT22;30451;48.638;10.624;2023-11-19T02:59:00;19.20;58.30
44723;DHT22;30451;48.638;10.624;2023-11-19T03:01:28;19.20;58.30
44723;DHT22;30451;48.638;10.624;2023-11-19T03:04:00;19.20;58.30
44723;DHT22;30451;48.638;10.624;2023-11-19T03:06:27;19.10;58.30
44723;DHT22;30451;48.638;10.624;2023-11-19T03:08:54;19.10;58.30
44723;DHT22;30451;48.638;10.624;2023-11-19T03:11:20;19.10;58.30
44723;DHT22;30451;48.638;10.624;2023-11-19T03:13:45;19.10;58.30
44723;DHT22;30451;48.638;10.624;2023-11-19T03:16:12;19.10;58.30
44723;DHT22;30451;48.638;10.624;2023-11-19T03:18:38;19.10;58.30
44723;DHT22;30451;48.638;10.624;2023-11-19T03:21:06;19.10;58.30
44723;DHT22;30451;48.638;10.624;2023-11-19T03:23:33;19.10;58.30
44723;DHT22;30451;48.638;10.624;2023-11-19T03:25:59;19.10;58.30
44723;DHT22;30451;48.638;10.624;2023-11-19T03:28:27;19.10;58.30
44723;DHT22;30451;48.638;10.624;2023-11-19T03:30:52;19.10;58.30
44723;DHT22;30451;48.638;10.624;2023-11-19T03:33:18;19.10;58.30
44723;DHT22;30451;48.638;10.624;2023-11-19T03:35:44;19.10;58.30
44723;DHT22;30451;48.638;10.624;2023-11-19T03:38:09;19.10;58.30
44723;DHT22;30451;48.638;10.624;2023-11-19T03:40:35;19.10;58.30
44723;DHT22;30451;48.638;10.624;2023-11-19T03:43:01;19.10;58.30
44723;DHT22;30451;48.638;10.624;2023-11-19T03:45:26;19.10;58.30
44723;DHT22;30451;48.638;10.624;2023-11-19T03:47:52;19.10;58.30
44723;DHT22;30451;48.638;10.624;2023-11-19T03:50:18;19.10;58.30
44723;DHT22;30451;48.638;10.624;2023-11-19T03:52:46;19.10;58.30
44723;DHT22;30451;48.638;10.624;2023-11-19T03:55:11;19.10;58.30
44723;DHT22;30451;48.638;10.624;2023-11-19T03:57:38;19.10;58.30
44723;DHT22;30451;48.638;10.624;2023-11-19T04:00:04;19.10;58.30
44723;DHT22;30451;48.638;10.624;2023-11-19T04:02:37;19.10;58.30
44723;DHT22;30451;48.638;10.624;2023-11-19T04:05:02;19.10;58.30
44723;DHT22;30451;48.638;10.624;2023-11-19T04:07:30;19.10;58.30
44723;DHT22;30451;48.638;10.624;2023-11-19T04:09:57;19.10;58.30
44723;DHT22;30451;48.638;10.624;2023-11-19T04:12:22;19.10;58.30
44723;DHT22;30451;48.638;10.624;2023-11-19T04:14:48;19.10;58.30
44723;DHT22;30451;48.638;10.624;2023-11-19T04:17:13;19.10;58.30
44723;DHT22;30451;48.638;10.624;2023-11-19T04:19:39;19.10;58.30
44723;DHT22;30451;48.638;10.624;2023-11-19T04:22:07;19.10;58.30
44723;DHT22;30451;48.638;10.624;2023-11-19T04:24:33;19.10;58.40
44723;DHT22;30451;48.638;10.624;2023-11-19T04:26:59;19.10;58.40
44723;DHT22;30451;48.638;10.624;2023-11-19T04:29:25;19.10;58.40
44723;DHT22;30451;48.638;10.624;2023-11-19T04:31:50;19.10;58.40
44723;DHT22;30451;48.638;10.624;2023-11-19T04:34:16;19.10;58.40
44723;DHT22;30451;48.638;10.624;2023-11-19T04:36:41;19.00;58.40
44723;DHT22;30451;48.638;10.624;2023-11-19T04:39:09;19.00;58.40
44723;DHT22;30451;48.638;10.624;2023-11-19T04:41:35;19.10;58.50
44723;DHT22;30451;48.638;10.624;2023-11-19T04:44:01;19.10;58.40
44723;DHT22;30451;48.638;10.624;2023-11-19T04:46:27;19.10;58.40
44723;DHT22;30451;48.638;10.624;2023-11-19T04:48:53;19.00;58.40
44723;DHT22;30451;48.638;10.624;2023-11-19T04:51:18;19.00;58.40
44723;DHT22;30451;48.638;10.624;2023-11-19T04:53:44;19.00;58.50
44723;DHT22;30451;48.638;10.624;2023-11-19T04:56:12;19.00;58.40
44723;DHT22;30451;48.638;10.624;2023-11-19T04:58:39;19.00;58.50
44723;DHT22;30451;48.638;10.624;2023-11-19T05:01:04;19.10;58.70
44723;DHT22;30451;48.638;10.624;2023-11-19T05:03:31;19.10;58.60
44723;DHT22;30451;48.638;10.624;2023-11-19T05:05:57;19.10;58.60
44723;DHT22;30451;48.638;10.624;2023-11-19T05:08:22;19.10;58.60
44723;DHT22;30451;48.638;10.624;2023-11-19T05:10:48;19.00;58.50
44723;DHT22;30451;48.638;10.624;2023-11-19T05:13:14;19.10;58.60
44723;DHT22;30451;48.638;10.624;2023-11-19T05:15:40;19.10;58.70
44723;DHT22;30451;48.638;10.624;2023-11-19T05:18:06;19.00;58.60
44723;DHT22;30451;48.638;10.624;2023-11-19T05:20:32;19.00;58.60
44723;DHT22;30451;48.638;10.624;2023-11-19T05:22:58;19.00;58.70
44723;DHT22;30451;48.638;10.624;2023-11-19T05:25:26;19.00;58.60
44723;DHT22;30451;48.638;10.624;2023-11-19T05:27:52;19.00;58.60
44723;DHT22;30451;48.638;10.624;2023-11-19T05:30:18;19.00;58.70
44723;DHT22;30451;48.638;10.624;2023-11-19T05:32:43;19.00;59.20
44723;DHT22;30451;48.638;10.624;2023-11-19T05:35:09;19.00;58.70
44723;DHT22;30451;48.638;10.624;2023-11-19T05:37:35;19.00;58.70
44723;DHT22;30451;48.638;10.624;2023-11-19T05:40:01;19.00;58.70
44723;DHT22;30451;48.638;10.624;2023-11-19T05:42:29;19.00;58.70
44723;DHT22;30451;48.638;10.624;2023-11-19T05:44:54;19.00;58.70
44723;DHT22;30451;48.638;10.624;2023-11-19T05:47:20;19.00;58.70
44723;DHT22;30451;48.638;10.624;2023-11-19T05:49:46;19.00;58.80
44723;DHT22;30451;48.638;10.624;2023-11-19T05:52:11;19.00;58.80
44723;DHT22;30451;48.638;10.624;2023-11-19T05:54:38;19.00;58.80
44723;DHT22;30451;48.638;10.624;2023-11-19T05:57:07;19.00;58.70
44723;DHT22;30451;48.638;10.624;2023-11-19T05:59:36;19.00;58.80
44723;DHT22;30451;48.638;10.624;2023-11-19T06:02:05;19.00;58.80
44723;DHT22;30451;48.638;10.624;2023-11-19T06:04:30;19.00;58.80
44723;DHT22;30451;48.638;10.624;2023-11-19T06:06:56;19.00;58.80
44723;DHT22;30451;48.638;10.624;2023-11-19T06:09:21;19.00;58.80
44723;DHT22;30451;48.638;10.624;2023-11-19T06:11:51;19.00;58.90
44723;DHT22;30451;48.638;10.624;2023-11-19T06:14:18;19.00;58.80
44723;DHT22;30451;48.638;10.624;2023-11-19T06:16:44;19.00;58.80
44723;DHT22;30451;48.638;10.624;2023-11-19T06:19:09;19.00;58.90
44723;DHT22;30451;48.638;10.624;2023-11-19T06:21:36;19.00;58.80
44723;DHT22;30451;48.638;10.624;2023-11-19T06:24:02;19.00;58.90
44723;DHT22;30451;48.638;10.624;2023-11-19T06:26:28;19.00;58.80
44723;DHT22;30451;48.638;10.624;2023-11-19T06:28:54;19.00;58.90
44723;DHT22;30451;48.638;10.624;2023-11-19T06:31:20;19.00;59.00
44723;DHT22;30451;48.638;10.624;2023-11-19T06:33:46;19.00;58.90
44723;DHT22;30451;48.638;10.624;2023-11-19T06:36:14;19.00;58.90
44723;DHT22;30451;48.638;10.624;2023-11-19T06:38:42;19.00;58.90
44723;DHT22;30451;48.638;10.624;2023-11-19T06:41:08;19.00;58.90
44723;DHT22;30451;48.638;10.624;2023-11-19T06:43:37;19.00;58.90
44723;DHT22;30451;48.638;10.624;2023-11-19T06:46:03;19.00;58.90
44723;DHT22;30451;48.638;10.624;2023-11-19T06:48:32;19.00;58.90
44723;DHT22;30451;48.638;10.624;2023-11-19T06:50:58;19.00;59.00
44723;DHT22;30451;48.638;10.624;2023-11-19T06:53:24;19.00;58.90
44723;DHT22;30451;48.638;10.624;2023-11-19T06:55:50;19.00;58.90
44723;DHT22;30451;48.638;10.624;2023-11-19T06:58:15;19.00;58.90
44723;DHT22;30451;48.638;10.624;2023-11-19T07:00:42;19.00;58.90
44723;DHT22;30451;48.638;10.624;2023-11-19T07:03:08;19.00;59.00
44723;DHT22;30451;48.638;10.624;2023-11-19T07:05:36;19.00;58.90
44723;DHT22;30451;48.638;10.624;2023-11-19T07:08:05;19.00;59.00
44723;DHT22;30451;48.638;10.624;2023-11-19T07:10:32;19.00;58.90
44723;DHT22;30451;48.638;10.624;2023-11-19T07:12:59;19.00;58.90
44723;DHT22;30451;48.638;10.624;2023-11-19T07:15:24;19.00;58.90
44723;DHT22;30451;48.638;10.624;2023-11-19T07:17:50;19.00;58.90
44723;DHT22;30451;48.638;10.624;2023-11-19T07:20:15;19.00;58.90
44723;DHT22;30451;48.638;10.624;2023-11-19T07:22:44;19.00;59.00
44723;DHT22;30451;48.638;10.624;2023-11-19T07:25:13;19.00;59.00
44723;DHT22;30451;48.638;10.624;2023-11-19T07:27:39;19.00;59.00
44723;DHT22;30451;48.638;10.624;2023-11-19T07:30:06;19.00;59.00
44723;DHT22;30451;48.638;10.624;2023-11-19T07:32:33;19.00;59.00
44723;DHT22;30451;48.638;10.624;2023-11-19T07:34:58;19.00;59.00
44723;DHT22;30451;48.638;10.624;2023-11-19T07:37:25;19.00;59.50
44723;DHT22;30451;48.638;10.624;2023-11-19T07:39:50;19.00;59.00
44723;DHT22;30451;48.638;10.624;2023-11-19T07:42:16;19.00;59.00
44723;DHT22;30451;48.638;10.624;2023-11-19T07:44:42;19.00;59.00
44723;DHT22;30451;48.638;10.624;2023-11-19T07:47:08;19.00;59.00
44723;DHT22;30451;48.638;10.624;2023-11-19T07:49:34;19.00;59.00
44723;DHT22;30451;48.638;10.624;2023-11-19T07:51:59;19.00;59.00
44723;DHT22;30451;48.638;10.624;2023-11-19T07:54:25;19.00;59.00
44723;DHT22;30451;48.638;10.624;2023-11-19T07:56:51;19.00;59.00
44723;DHT22;30451;48.638;10.624;2023-11-19T07:59:16;19.00;59.00
44723;DHT22;30451;48.638;10.624;2023-11-19T08:01:42;19.00;59.00
44723;DHT22;30451;48.638;10.624;2023-11-19T08:04:08;19.00;59.00
44723;DHT22;30451;48.638;10.624;2023-11-19T08:06:34;19.00;59.00
44723;DHT22;30451;48.638;10.624;2023-11-19T08:08:59;19.00;59.00
44723;DHT22;30451;48.638;10.624;2023-11-19T08:11:25;19.00;58.90
44723;DHT22;30451;48.638;10.624;2023-11-19T08:13:50;19.00;59.00
44723;DHT22;30451;48.638;10.624;2023-11-19T08:16:16;19.00;59.00
44723;DHT22;30451;48.638;10.624;2023-11-19T08:18:43;19.00;59.00
44723;DHT22;30451;48.638;10.624;2023-11-19T08:21:08;19.00;59.00
44723;DHT22;30451;48.638;10.624;2023-11-19T08:23:35;19.00;59.00
44723;DHT22;30451;48.638;10.624;2023-11-19T08:26:01;19.00;59.00
44723;DHT22;30451;48.638;10.624;2023-11-19T08:28:26;19.00;59.00
44723;DHT22;30451;48.638;10.624;2023-11-19T08:30:53;19.00;59.00
44723;DHT22;30451;48.638;10.624;2023-11-19T08:33:18;19.00;59.00
44723;DHT22;30451;48.638;10.624;2023-11-19T08:35:44;19.00;59.00
44723;DHT22;30451;48.638;10.624;2023-11-19T08:38:10;19.00;59.00
44723;DHT22;30451;48.638;10.624;2023-11-19T08:40:36;19.00;59.00
44723;DHT22;30451;48.638;10.624;2023-11-19T08:43:04;19.00;58.90
44723;DHT22;30451;48.638;10.624;2023-11-19T08:45:30;19.00;59.00
44723;DHT22;30451;48.638;10.624;2023-11-19T08:47:57;19.00;58.90
44723;DHT22;30451;48.638;10.624;2023-11-19T08:50:23;19.00;59.00
44723;DHT22;30451;48.638;10.624;2023-11-19T08:52:49;19.00;58.90
44723;DHT22;30451;48.638;10.624;2023-11-19T08:55:14;19.00;59.00
44723;DHT22;30451;48.638;10.624;2023-11-19T08:57:40;19.00;58.90
44723;DHT22;30451;48.638;10.624;2023-11-19T09:00:07;19.00;58.90
44723;DHT22;30451;48.638;10.624;2023-11-19T09:02:37;19.00;58.90
44723;DHT22;30451;48.638;10.624;2023-11-19T09:05:03;19.00;59.00
44723;DHT22;30451;48.638;10.624;2023-11-19T09:07:29;19.00;58.90
44723;DHT22;30451;48.638;10.624;2023-11-19T09:09:55;19.00;58.90
44723;DHT22;30451;48.638;10.624;2023-11-19T09:12:20;19.00;58.90
44723;DHT22;30451;48.638;10.624;2023-11-19T09:14:46;19.00;58.90
44723;DHT22;30451;48.638;10.624;2023-11-19T09:17:16;19.00;58.90
44723;DHT22;30451;48.638;10.624;2023-11-19T09:19:43;19.00;58.90
44723;DHT22;30451;48.638;10.624;2023-11-19T09:22:09;19.00;58.90
44723;DHT22;30451;48.638;10.624;2023-11-19T09:24:34;19.00;58.90
44723;DHT22;30451;48.638;10.624;2023-11-19T09:27:00;19.00;58.90
44723;DHT22;30451;48.638;10.624;2023-11-19T09:29:25;19.00;58.90
44723;DHT22;30451;48.638;10.624;2023-11-19T09:31:51;19.00;58.80
44723;DHT22;30451;48.638;10.624;2023-11-19T09:34:17;19.00;58.80
44723;DHT22;30451;48.638;10.624;2023-11-19T09:36:42;19.00;58.80
44723;DHT22;30451;48.638;10.624;2023-11-19T09:39:12;19.00;58.80
44723;DHT22;30451;48.638;10.624;2023-11-19T09:41:40;19.00;58.80
44723;DHT22;30451;48.638;10.624;2023-11-19T09:44:08;19.00;58.80
44723;DHT22;30451;48.638;10.624;2023-11-19T09:46:35;19.00;58.80
44723;DHT22;30451;48.638;10.624;2023-11-19T09:49:02;19.00;58.80
44723;DHT22;30451;48.638;10.624;2023-11-19T09:51:29;19.00;58.80
44723;DHT22;30451;48.638;10.624;2023-11-19T09:53:55;19.00;58.80
44723;DHT22;30451;48.638;10.624;2023-11-19T09:56:20;19.00;59.30
44723;DHT22;30451;48.638;10.624;2023-11-19T09:58:47;19.00;58.80
44723;DHT22;30451;48.638;10.624;2023-11-19T10:01:14;19.00;58.80
44723;DHT22;30451;48.638;10.624;2023-11-19T10:03:41;19.00;58.80
44723;DHT22;30451;48.638;10.624;2023-11-19T10:06:09;19.00;58.80
44723;DHT22;30451;48.638;10.624;2023-11-19T10:08:39;19.00;58.80
44723;DHT22;30451;48.638;10.624;2023-11-19T10:11:06;19.00;58.80
44723;DHT22;30451;48.638;10.624;2023-11-19T10:13:37;19.00;58.80
44723;DHT22;30451;48.638;10.624;2023-11-19T10:16:12;19.00;58.80
44723;DHT22;30451;48.638;10.624;2023-11-19T10:18:42;19.00;58.80
44723;DHT22;30451;48.638;10.624;2023-11-19T10:21:08;19.00;58.80
44723;DHT22;30451;48.638;10.624;2023-11-19T10:23:52;19.00;58.80
44723;DHT22;30451;48.638;10.624;2023-11-19T10:26:19;19.00;58.70
44723;DHT22;30451;48.638;10.624;2023-11-19T10:28:46;19.00;58.70
44723;DHT22;30451;48.638;10.624;2023-11-19T10:31:14;19.00;58.70
44723;DHT22;30451;48.638;10.624;2023-11-19T10:33:40;19.00;58.70
44723;DHT22;30451;48.638;10.624;2023-11-19T10:36:06;19.00;58.80
44723;DHT22;30451;48.638;10.624;2023-11-19T10:38:32;19.00;58.80
44723;DHT22;30451;48.638;10.624;2023-11-19T10:40:58;19.00;58.80
44723;DHT22;30451;48.638;10.624;2023-11-19T10:43:24;19.00;58.80
44723;DHT22;30451;48.638;10.624;2023-11-19T10:45:51;19.00;58.70
44723;DHT22;30451;48.638;10.624;2023-11-19T10:48:17;19.00;58.70
44723;DHT22;30451;48.638;10.624;2023-11-19T10:50:44;19.00;58.80
44723;DHT22;30451;48.638;10.624;2023-11-19T10:53:11;19.00;58.80
44723;DHT22;30451;48.638;10.624;2023-11-19T10:55:41;19.00;58.70
44723;DHT22;30451;48.638;10.624;2023-11-19T10:58:10;19.00;58.70
44723;DHT22;30451;48.638;10.624;2023-11-19T11:00:47;19.00;58.70
44723;DHT22;30451;48.638;10.624;2023-11-19T11:03:20;19.00;58.80
44723;DHT22;30451;48.638;10.624;2023-11-19T11:05:48;19.00;58.80
44723;DHT22;30451;48.638;10.624;2023-11-19T11:08:15;19.00;58.80
44723;DHT22;30451;48.638;10.624;2023-11-19T11:10:53;19.00;58.80
44723;DHT22;30451;48.638;10.624;2023-11-19T11:13:22;19.00;58.80
44723;DHT22;30451;48.638;10.624;2023-11-19T11:15:50;19.00;58.80
44723;DHT22;30451;48.638;10.624;2023-11-19T11:18:16;19.00;58.80
44723;DHT22;30451;48.638;10.624;2023-11-19T11:20:45;19.00;58.70
44723;DHT22;30451;48.638;10.624;2023-11-19T11:29:14;19.00;58.70
44723;DHT22;30451;48.638;10.624;2023-11-19T11:37:36;19.00;58.70
44723;DHT22;30451;48.638;10.624;2023-11-19T11:40:04;19.00;58.70
44723;DHT22;30451;48.638;10.624;2023-11-19T11:42:38;19.00;58.70
44723;DHT22;30451;48.638;10.624;2023-11-19T11:45:06;19.10;58.80
44723;DHT22;30451;48.638;10.624;2023-11-19T11:50:18;19.00;58.80
44723;DHT22;30451;48.638;10.624;2023-11-19T11:55:51;19.10;58.80
44723;DHT22;30451;48.638;10.624;2023-11-19T11:58:21;19.10;58.80
44723;DHT22;30451;48.638;10.624;2023-11-19T12:00:48;19.10;58.80
44723;DHT22;30451;48.638;10.624;2023-11-19T12:03:14;19.10;58.80
44723;DHT22;30451;48.638;10.624;2023-11-19T12:05:44;19.10;58.80
44723;DHT22;30451;48.638;10.624;2023-11-19T12:08:11;19.00;58.80
44723;DHT22;30451;48.638;10.624;2023-11-19T12:10:44;19.10;58.80
44723;DHT22;30451;48.638;10.624;2023-11-19T12:13:10;19.10;58.80
44723;DHT22;30451;48.638;10.624;2023-11-19T12:18:32;19.10;58.80
44723;DHT22;30451;48.638;10.624;2023-11-19T12:21:01;19.10;58.80
44723;DHT22;30451;48.638;10.624;2023-11-19T12:23:30;19.10;58.80
44723;DHT22;30451;48.638;10.624;2023-11-19T12:25:57;19.00;58.70
44723;DHT22;30451;48.638;10.624;2023-11-19T12:28:23;19.10;58.80
44723;DHT22;30451;48.638;10.624;2023-11-19T12:30:52;19.10;58.80
44723;DHT22;30451;48.638;10.624;2023-11-19T12:33:19;19.10;58.80
44723;DHT22;30451;48.638;10.624;2023-11-19T12:35:46;19.10;58.80
44723;DHT22;30451;48.638;10.624;2023-11-19T12:38:25;19.10;58.80
44723;DHT22;30451;48.638;10.624;2023-11-19T12:41:04;19.10;58.80
44723;DHT22;30451;48.638;10.624;2023-11-19T12:43:30;19.10;58.80
44723;DHT22;30451;48.638;10.624;2023-11-19T12:45:56;19.10;58.70
44723;DHT22;30451;48.638;10.624;2023-11-19T12:48:22;19.10;58.70
44723;DHT22;30451;48.638;10.624;2023-11-19T12:50:54;19.10;58.70
44723;DHT22;30451;48.638;10.624;2023-11-19T12:53:21;19.10;58.70
44723;DHT22;30451;48.638;10.624;2023-11-19T12:55:46;19.10;58.70
44723;DHT22;30451;48.638;10.624;2023-11-19T12:58:34;19.10;58.70
44723;DHT22;30451;48.638;10.624;2023-11-19T13:03:36;19.10;58.70
44723;DHT22;30451;48.638;10.624;2023-11-19T13:06:08;19.10;58.70
44723;DHT22;30451;48.638;10.624;2023-11-19T13:08:49;19.10;58.70
44723;DHT22;30451;48.638;10.624;2023-11-19T13:11:30;19.10;58.70
44723;DHT22;30451;48.638;10.624;2023-11-19T13:13:58;19.10;58.70
44723;DHT22;30451;48.638;10.624;2023-11-19T13:16:25;19.10;58.70
44723;DHT22;30451;48.638;10.624;2023-11-19T13:18:51;19.10;59.20
44723;DHT22;30451;48.638;10.624;2023-11-19T13:21:17;19.10;58.70
44723;DHT22;30451;48.638;10.624;2023-11-19T13:23:43;19.10;58.70
44723;DHT22;30451;48.638;10.624;2023-11-19T13:26:09;19.10;58.70
44723;DHT22;30451;48.638;10.624;2023-11-19T13:28:36;19.10;58.70
44723;DHT22;30451;48.638;10.624;2023-11-19T13:31:01;19.10;58.70
44723;DHT22;30451;48.638;10.624;2023-11-19T13:33:28;19.10;58.70
44723;DHT22;30451;48.638;10.624;2023-11-19T13:35:55;19.10;58.70
44723;DHT22;30451;48.638;10.624;2023-11-19T13:38:20;19.10;58.70
44723;DHT22;30451;48.638;10.624;2023-11-19T13:40:46;19.10;58.70
44723;DHT22;30451;48.638;10.624;2023-11-19T13:43:12;19.10;58.70
44723;DHT22;30451;48.638;10.624;2023-11-19T13:45:37;19.10;58.70
44723;DHT22;30451;48.638;10.624;2023-11-19T13:48:03;19.10;58.70
44723;DHT22;30451;48.638;10.624;2023-11-19T13:50:29;19.10;58.70
44723;DHT22;30451;48.638;10.624;2023-11-19T13:52:55;19.10;58.70
44723;DHT22;30451;48.638;10.624;2023-11-19T13:55:21;19.10;58.60
44723;DHT22;30451;48.638;10.624;2023-11-19T13:57:47;19.10;58.60
44723;DHT22;30451;48.638;10.624;2023-11-19T14:00:14;19.10;58.70
44723;DHT22;30451;48.638;10.624;2023-11-19T14:02:45;19.20;58.70
44723;DHT22;30451;48.638;10.624;2023-11-19T14:05:12;19.10;58.70
44723;DHT22;30451;48.638;10.624;2023-11-19T14:07:39;19.10;58.60
44723;DHT22;30451;48.638;10.624;2023-11-19T14:10:06;19.20;58.70
44723;DHT22;30451;48.638;10.624;2023-11-19T14:12:32;19.10;58.60
44723;DHT22;30451;48.638;10.624;2023-11-19T14:14:58;19.20;58.70
44723;DHT22;30451;48.638;10.624;2023-11-19T14:17:25;19.10;58.60
44723;DHT22;30451;48.638;10.624;2023-11-19T14:19:51;19.20;58.70
44723;DHT22;30451;48.638;10.624;2023-11-19T14:22:17;19.20;58.60
44723;DHT22;30451;48.638;10.624;2023-11-19T14:24:42;19.20;58.70
44723;DHT22;30451;48.638;10.624;2023-11-19T14:27:09;19.20;58.70
44723;DHT22;30451;48.638;10.624;2023-11-19T14:29:35;19.20;58.70
44723;DHT22;30451;48.638;10.624;2023-11-19T14:32:02;19.20;58.70
44723;DHT22;30451;48.638;10.624;2023-11-19T14:34:31;19.20;58.70
44723;DHT22;30451;48.638;10.624;2023-11-19T14:37:00;19.20;58.60
44723;DHT22;30451;48.638;10.624;2023-11-19T14:39:26;19.20;58.70
44723;DHT22;30451;48.638;10.624;2023-11-19T14:41:51;19.20;58.60
44723;DHT22;30451;48.638;10.624;2023-11-19T14:44:18;19.20;58.70
44723;DHT22;30451;48.638;10.624;2023-11-19T14:46:46;19.20;58.90
44723;DHT22;30451;48.638;10.624;2023-11-19T14:49:12;19.20;58.60
44723;DHT22;30451;48.638;10.624;2023-11-19T14:51:39;19.20;58.60
44723;DHT22;30451;48.638;10.624;2023-11-19T14:54:05;19.20;58.60
44723;DHT22;30451;48.638;10.624;2023-11-19T14:56:31;19.20;58.60
44723;DHT22;30451;48.638;10.624;2023-11-19T14:58:56;19.20;58.60
44723;DHT22;30451;48.638;10.624;2023-11-19T15:01:22;19.20;58.60
44723;DHT22;30451;48.638;10.624;2023-11-19T15:03:48;19.20;58.60
44723;DHT22;30451;48.638;10.624;2023-11-19T15:06:13;19.20;58.60
44723;DHT22;30451;48.638;10.624;2023-11-19T15:08:40;19.20;58.60
44723;DHT22;30451;48.638;10.624;2023-11-19T15:11:07;19.20;58.60
44723;DHT22;30451;48.638;10.624;2023-11-19T15:13:37;19.20;58.60
44723;DHT22;30451;48.638;10.624;2023-11-19T15:16:04;19.20;58.60
44723;DHT22;30451;48.638;10.624;2023-11-19T15:18:36;19.20;58.50
44723;DHT22;30451;48.638;10.624;2023-11-19T15:21:01;19.20;58.60
44723;DHT22;30451;48.638;10.624;2023-11-19T15:23:27;19.20;58.50
44723;DHT22;30451;48.638;10.624;2023-11-19T15:25:54;19.20;58.50
44723;DHT22;30451;48.638;10.624;2023-11-19T15:28:20;19.20;58.50
44723;DHT22;30451;48.638;10.624;2023-11-19T15:30:47;19.20;58.60
44723;DHT22;30451;48.638;10.624;2023-11-19T15:33:13;19.20;58.60
44723;DHT22;30451;48.638;10.624;2023-11-19T15:35:38;19.20;58.60